| Date | Time | Temp. (oF) | Dew Point (oF) | Rel. Hum. (%) | Press. (in.) | Wind Dir. | Wind Speed (mph) | Hourly Rainfall (in.) |
|
|---|---|---|---|---|---|---|---|---|---|
| 1 | 04/13 | 00:00 | 54 | 35 | 50 | 29.94 | NNW | 5 | 0.00 |
| 2 | 04/12 | 23:00 | 56 | 36 | 48 | 29.90 | NNW | 3 | 0.00 |
| 3 | 04/12 | 22:00 | 59 | 35 | 42 | 29.86 | N | 9 | 0.00 |
| 4 | 04/12 | 21:00 | 62 | 35 | 37 | 29.80 | N | 6 | 0.00 |
| 5 | 04/12 | 20:00 | 63 | 39 | 42 | 29.75 | W | 3 | 0.00 |
| 6 | 04/12 | 19:00 | 67 | 38 | 35 | 29.70 | WNW | 3 | 0.00 |
| 7 | 04/12 | 18:00 | 69 | 39 | 34 | 29.68 | NW | 10 | 0.00 |
| 8 | 04/12 | 17:00 | 68 | 38 | 34 | 29.67 | NW | 10 | 0.00 |
| 9 | 04/12 | 16:00 | 67 | 36 | 33 | 29.67 | NNW | 12 | 0.00 |
| 10 | 04/12 | 15:00 | 66 | 39 | 38 | 29.69 | WNW | 17 | 0.00 |
| 11 | 04/12 | 14:00 | 64 | 38 | 39 | 29.70 | NW | 9 | 0.00 |
| 12 | 04/12 | 13:00 | 61 | 44 | 54 | 29.70 | WNW | 9 | 0.00 |
| 13 | 04/12 | 12:00 | 58 | 41 | 55 | 29.70 | NW | 11 | 0.00 |
| 14 | 04/12 | 11:00 | 55 | 44 | 68 | 29.69 | NW | 11 | 0.00 |
| 15 | 04/12 | 10:00 | 51 | 46 | 86 | 29.67 | NW | 7 | 0.00 |
| 16 | 04/12 | 09:00 | 48 | 46 | 94 | 29.66 | WNW | 9 | 0.00 |
| 17 | 04/12 | 08:00 | 46 | 45 | 97 | 29.64 | WNW | 7 | 0.00 |
| 18 | 04/12 | 07:00 | 45 | 45 | 100 | 29.62 | NW | 6 | 0.00 |
| 19 | 04/12 | 06:00 | 45 | 45 | 100 | 29.59 | WNW | 5 | 0.00 |
| 20 | 04/12 | 05:00 | 45 | 45 | 100 | 29.57 | NW | 5 | 0.00 |
| 21 | 04/12 | 04:00 | 45 | 45 | 100 | 29.57 | WNW | 5 | 0.01 |
| 22 | 04/12 | 03:00 | 45 | 45 | 100 | 29.57 | NW | 5 | 0.00 |
| 23 | 04/12 | 02:00 | 45 | 45 | 100 | 29.60 | NW | 5 | 0.00 |
| 24 | 04/12 | 01:00 | 45 | 45 | 100 | 29.62 | N | 7 | 0.00 |